This is the latest recevied weather packets stored in our database for station/object SV9TNF-4. If no packets are shown the sender has not sent any weather packets the latest 1 day(s).
| Time | Temp. | Humidity | Pressure | Rain* | Wind** | Luminosity | Snow |
|---|---|---|---|---|---|---|---|
| 1778077832 | 23.33° C | 48% | 1018 hPa | 0 mm | 4.92 m/s, 250° | - | - |
| 1778077532 | 23.89° C | 52% | 1018 hPa | 0 mm | 6.26 m/s, 311° | - | - |
| 1778077232 | 23.89° C | 52% | 1018 hPa | 0 mm | 6.26 m/s, 311° | - | - |
| 1778075731 | 22.78° C | 63% | 1018 hPa | 0 mm | 8.05 m/s, 276° | - | - |
| 1778073931 | 22.78° C | 61% | 1018.3 hPa | 0 mm | 9.83 m/s, 257° | - | - |
| 1778072430 | 22.78° C | 59% | 1018.3 hPa | 0 mm | 17.88 m/s, 278° | - | - |
| 1778071830 | 22.78° C | 66% | 1018.3 hPa | 0 mm | 12.96 m/s, 299° | - | - |
| 1778070930 | 22.78° C | 65% | 1018.6 hPa | 0 mm | 6.26 m/s, 276° | - | - |
| 1778067329 | 23.89° C | 57% | 1018.6 hPa | 0 mm | 16.09 m/s, 273° | - | - |
| 1778066728 | 23.89° C | 53% | 1018.6 hPa | 0 mm | 16.09 m/s, 293° | - | - |
| 1778060426 | 21.11° C | 64% | 1019 hPa | 0 mm | 8.05 m/s, 84° | - | - |
| 1778060126 | 21.11° C | 64% | 1019 hPa | 0 mm | 8.05 m/s, 84° | - | - |
| 1778059826 | 21.11° C | 64% | 1019 hPa | 0 mm | 8.05 m/s, 84° | - | - |
| 1778058926 | 21.11° C | 64% | 1019 hPa | 0 mm | 8.05 m/s, 84° | - | - |
| 1778058626 | 21.11° C | 64% | 1019 hPa | 0 mm | 8.05 m/s, 84° | - | - |
| 1778057726 | 21.11° C | 64% | 1019 hPa | 0 mm | 8.05 m/s, 84° | - | - |
| 1778057125 | 20.56° C | 60% | 1018.6 hPa | 0 mm | 6.26 m/s, 103° | - | - |
| 1778056825 | 20.56° C | 60% | 1018.6 hPa | 0 mm | 6.26 m/s, 103° | - | - |
| 1778056225 | 20.56° C | 60% | 1018.6 hPa | 0 mm | 6.26 m/s, 103° | - | - |
| 1778055925 | 20.56° C | 60% | 1018.6 hPa | 0 mm | 6.26 m/s, 103° | - | - |
| 1778055325 | 20.56° C | 60% | 1018.6 hPa | 0 mm | 6.26 m/s, 103° | - | - |
| 1778055025 | 20.56° C | 60% | 1018.6 hPa | 0 mm | 6.26 m/s, 103° | - | - |
| 1778048122 | 18.89° C | 48% | 1018 hPa | 0 mm | 1.79 m/s, 354° | - | - |
| 1778046322 | 18.89° C | 48% | 1018 hPa | 0 mm | 1.79 m/s, 354° | - | - |
| 1778045722 | 18.89° C | 48% | 1018 hPa | 0 mm | 1.79 m/s, 354° | - | - |
* Rain latest hour (hover to see other rain measurements)
** Current wind speed in m/s (hover to see current wind gust speed)